Time;durP1;ratioP1;P1;durP2;ratioP2;P2;SDS_P1;SDS_P2;PMS_P1;PMS_P2;Temp;Humidity;BMP_temperature;BMP_pressure;BME280_temperature;BME280_humidity;BME280_pressure;Samples;Min_cycle;Max_cycle;Signal;HPM_P1;HPM_P2
2023/10/05 00:02:21;;;;;;;2.07;1.10;;;;;;;;;;5016376;28;20483;-66
2023/10/05 00:04:50;;;;;;;2.17;0.90;;;;;;;;;;5031042;28;20855;-66
2023/10/05 00:07:23;;;;;;;1.60;0.60;;;;;;;;;;5029568;28;20554;-66
2023/10/05 00:09:50;;;;;;;3.73;1.10;;;;;;;;;;5017752;28;20571;-66
2023/10/05 00:12:20;;;;;;;2.13;0.90;;;;;;;;;;5019740;28;20439;-66
2023/10/05 00:14:55;;;;;;;6.13;1.27;;;;;;;;;;5030897;28;20494;-65
2023/10/05 00:17:23;;;;;;;1.97;0.70;;;;;;;;;;5029501;28;20460;-67
2023/10/05 00:19:50;;;;;;;2.60;0.90;;;;;;;;;;5026089;28;20987;-65
2023/10/05 00:22:18;;;;;;;2.43;1.00;;;;;;;;;;5021556;28;20518;-66
2023/10/05 00:24:47;;;;;;;2.17;0.80;;;;;;;;;;5013492;28;20472;-66
2023/10/05 00:27:15;;;;;;;2.23;1.07;;;;;;;;;;5019973;28;20443;-65
2023/10/05 00:29:46;;;;;;;2.97;1.10;;;;;;;;;;5025690;28;20540;-65
2023/10/05 00:32:20;;;;;;;3.23;1.20;;;;;;;;;;5020207;28;20459;-65
2023/10/05 00:34:56;;;;;;;2.10;1.20;;;;;;;;;;5013979;28;20472;-65
2023/10/05 00:37:26;;;;;;;1.50;0.53;;;;;;;;;;5021527;28;20489;-64
2023/10/05 00:39:55;;;;;;;1.73;0.90;;;;;;;;;;5019792;28;20447;-65
2023/10/05 00:42:22;;;;;;;2.40;1.10;;;;;;;;;;5018488;28;20498;-65
2023/10/05 00:44:50;;;;;;;4.50;1.03;;;;;;;;;;5023143;28;20562;-66
2023/10/05 00:47:16;;;;;;;2.20;1.20;;;;;;;;;;5024908;28;20470;-65
2023/10/05 00:49:51;;;;;;;1.73;0.83;;;;;;;;;;5023855;28;21286;-65
2023/10/05 00:52:24;;;;;;;3.00;1.00;;;;;;;;;;5025404;28;20439;-67
2023/10/05 00:54:56;;;;;;;1.80;0.83;;;;;;;;;;5025205;28;20510;-65
2023/10/05 00:57:24;;;;;;;2.83;1.27;;;;;;;;;;5016245;28;20469;-64
2023/10/05 01:00:09;;;;;;;1.90;0.90;;;;;;;;;;5021203;28;20448;-65
2023/10/05 01:02:44;;;;;;;3.30;1.33;;;;;;;;;;5020771;28;21036;-65
2023/10/05 01:05:15;;;;;;;2.17;0.90;;;;;;;;;;5021867;28;20509;-67
2023/10/05 01:07:49;;;;;;;2.00;0.80;;;;;;;;;;5025883;28;20460;-65
2023/10/05 01:10:27;;;;;;;2.03;1.03;;;;;;;;;;5030630;28;20455;-67
2023/10/05 01:12:56;;;;;;;2.10;0.83;;;;;;;;;;5029373;28;20450;-65
2023/10/05 01:15:30;;;;;;;1.97;1.00;;;;;;;;;;5031710;28;20857;-65
2023/10/05 01:17:59;;;;;;;2.17;1.17;;;;;;;;;;5026188;28;20792;-65
2023/10/05 01:20:29;;;;;;;3.37;1.40;;;;;;;;;;5029313;28;20463;-65
2023/10/05 01:23:04;;;;;;;2.20;0.83;;;;;;;;;;5030244;28;20510;-66
2023/10/05 01:25:33;;;;;;;2.20;1.17;;;;;;;;;;5022149;28;20988;-65
2023/10/05 01:28:01;;;;;;;1.93;0.90;;;;;;;;;;5019613;28;20966;-64
2023/10/05 01:30:28;;;;;;;2.60;0.97;;;;;;;;;;5022780;28;20463;-65
2023/10/05 01:32:55;;;;;;;2.10;0.80;;;;;;;;;;5030823;28;20463;-65
2023/10/05 01:35:23;;;;;;;2.20;1.00;;;;;;;;;;5023824;28;20490;-66
2023/10/05 01:37:53;;;;;;;1.43;0.50;;;;;;;;;;5025804;28;20811;-65
2023/10/05 01:40:30;;;;;;;1.90;0.60;;;;;;;;;;5020257;28;20529;-65
2023/10/05 01:42:59;;;;;;;1.80;0.70;;;;;;;;;;5028671;28;20451;-65
2023/10/05 01:45:29;;;;;;;2.10;0.93;;;;;;;;;;5023019;28;20550;-65
2023/10/05 01:48:00;;;;;;;2.03;0.90;;;;;;;;;;5024581;28;20517;-65
2023/10/05 01:50:27;;;;;;;1.70;0.90;;;;;;;;;;5028407;28;20428;-65
2023/10/05 01:53:04;;;;;;;2.50;0.93;;;;;;;;;;5018276;28;20451;-66
2023/10/05 01:55:34;;;;;;;2.33;1.30;;;;;;;;;;5026007;28;20856;-65
2023/10/05 01:58:03;;;;;;;2.07;0.90;;;;;;;;;;5028084;28;20544;-65
2023/10/05 02:00:32;;;;;;;1.60;0.70;;;;;;;;;;5028050;28;20452;-65
2023/10/05 02:03:01;;;;;;;2.20;1.00;;;;;;;;;;5030483;28;20865;-66
2023/10/05 02:05:30;;;;;;;2.57;0.90;;;;;;;;;;5015562;28;20491;-65
2023/10/05 02:07:58;;;;;;;2.07;1.10;;;;;;;;;;5025519;28;20493;-65
2023/10/05 02:10:25;;;;;;;2.00;0.90;;;;;;;;;;5018747;28;20512;-65
2023/10/05 02:12:54;;;;;;;1.90;1.00;;;;;;;;;;5013950;28;20866;-65
2023/10/05 02:15:28;;;;;;;2.40;1.00;;;;;;;;;;5026843;28;20469;-65
2023/10/05 02:17:59;;;;;;;1.57;0.60;;;;;;;;;;5019452;28;20482;-65
2023/10/05 02:20:40;;;;;;;9.77;1.00;;;;;;;;;;5021491;28;21072;-66
2023/10/05 02:23:24;;;;;;;2.43;0.70;;;;;;;;;;5027329;28;20444;-66
2023/10/05 02:25:56;;;;;;;2.77;1.70;;;;;;;;;;5015062;28;20840;-65
2023/10/05 02:28:25;;;;;;;3.10;0.77;;;;;;;;;;5032300;28;20477;-65
2023/10/05 02:30:54;;;;;;;2.30;1.10;;;;;;;;;;5031012;28;20463;-65
2023/10/05 02:33:24;;;;;;;2.93;1.00;;;;;;;;;;5021103;28;20470;-65
2023/10/05 02:35:56;;;;;;;1.80;1.00;;;;;;;;;;5013997;28;20448;-65
2023/10/05 02:38:23;;;;;;;1.80;0.80;;;;;;;;;;5016439;28;20464;-66
2023/10/05 02:40:59;;;;;;;2.13;0.97;;;;;;;;;;5027022;28;20448;-65
2023/10/05 02:43:28;;;;;;;2.87;0.97;;;;;;;;;;5015146;28;20444;-65
2023/10/05 02:46:08;;;;;;;2.87;1.07;;;;;;;;;;5015664;28;20547;-66
2023/10/05 02:48:36;;;;;;;2.00;0.90;;;;;;;;;;5019495;28;20464;-65
2023/10/05 02:51:05;;;;;;;1.90;0.90;;;;;;;;;;5031144;28;20952;-65
2023/10/05 02:53:40;;;;;;;1.60;0.70;;;;;;;;;;5029083;28;20455;-65
2023/10/05 02:56:15;;;;;;;2.07;0.93;;;;;;;;;;5013870;28;20455;-65
2023/10/05 02:58:44;;;;;;;3.10;0.77;;;;;;;;;;5019425;28;20821;-66
2023/10/05 03:01:15;;;;;;;2.10;0.80;;;;;;;;;;5023335;28;20452;-65
2023/10/05 03:03:43;;;;;;;2.50;1.00;;;;;;;;;;5015872;28;20811;-65
2023/10/05 03:06:11;;;;;;;1.93;0.93;;;;;;;;;;5021733;28;20461;-65
2023/10/05 03:08:39;;;;;;;5.50;1.47;;;;;;;;;;5019660;28;20439;-65
2023/10/05 03:11:08;;;;;;;4.07;1.20;;;;;;;;;;5022248;28;20548;-65
2023/10/05 03:13:37;;;;;;;3.27;1.03;;;;;;;;;;5026539;28;20512;-65
2023/10/05 03:16:06;;;;;;;3.23;1.43;;;;;;;;;;5024625;28;20810;-65
2023/10/05 03:18:37;;;;;;;3.50;1.13;;;;;;;;;;5019419;28;20447;-65
2023/10/05 03:21:10;;;;;;;2.70;1.13;;;;;;;;;;5018970;28;20968;-65
2023/10/05 03:23:38;;;;;;;2.03;1.00;;;;;;;;;;5022839;28;20460;-66
2023/10/05 03:26:07;;;;;;;5.70;2.37;;;;;;;;;;5025814;28;20905;-65
2023/10/05 03:28:35;;;;;;;4.57;2.13;;;;;;;;;;5021157;28;20440;-65
2023/10/05 03:31:06;;;;;;;2.40;1.03;;;;;;;;;;5026432;28;20822;-65
2023/10/05 03:33:35;;;;;;;3.13;1.50;;;;;;;;;;5022820;28;20471;-65
2023/10/05 03:36:06;;;;;;;5.00;1.00;;;;;;;;;;5021348;28;20473;-66
2023/10/05 03:38:34;;;;;;;3.67;1.23;;;;;;;;;;5021851;28;20435;-65
2023/10/05 03:41:04;;;;;;;2.50;1.33;;;;;;;;;;5017422;28;20459;-65
2023/10/05 03:43:32;;;;;;;2.17;0.90;;;;;;;;;;5013131;28;20440;-65
2023/10/05 03:46:06;;;;;;;3.10;1.20;;;;;;;;;;5026328;28;20451;-65
2023/10/05 03:48:38;;;;;;;2.10;1.33;;;;;;;;;;5021062;28;20439;-65
2023/10/05 03:51:15;;;;;;;2.10;1.00;;;;;;;;;;5014948;28;20520;-65
2023/10/05 03:53:42;;;;;;;1.73;0.70;;;;;;;;;;5022092;28;21039;-65
2023/10/05 03:56:12;;;;;;;2.00;1.00;;;;;;;;;;5032204;28;20440;-65
2023/10/05 03:58:39;;;;;;;2.40;1.10;;;;;;;;;;5025846;28;21000;-66
2023/10/05 04:01:10;;;;;;;3.07;1.03;;;;;;;;;;5023468;28;20456;-65
2023/10/05 04:03:38;;;;;;;3.07;1.20;;;;;;;;;;5017988;28;20476;-65
2023/10/05 04:06:16;;;;;;;2.20;1.07;;;;;;;;;;5016465;28;21125;-66
2023/10/05 04:08:45;;;;;;;4.23;0.93;;;;;;;;;;5024741;28;20449;-65
2023/10/05 04:11:12;;;;;;;2.53;1.30;;;;;;;;;;5021882;28;20463;-65
2023/10/05 04:13:39;;;;;;;2.10;0.70;;;;;;;;;;5017311;28;20462;-65
2023/10/05 04:16:09;;;;;;;2.30;0.90;;;;;;;;;;5031704;28;20439;-65
2023/10/05 04:18:37;;;;;;;4.60;1.40;;;;;;;;;;5018667;28;20440;-65
2023/10/05 04:21:07;;;;;;;2.10;1.10;;;;;;;;;;5375913;22;20491;-68
2023/10/05 04:23:35;;;;;;;1.80;0.83;;;;;;;;;;5035247;28;20523;-67
2023/10/05 04:26:08;;;;;;;2.27;0.90;;;;;;;;;;5043378;28;20467;-68
2023/10/05 04:28:41;;;;;;;3.07;1.37;;;;;;;;;;5043579;28;20515;-68
2023/10/05 04:31:13;;;;;;;2.43;0.77;;;;;;;;;;5050172;28;20493;-68
2023/10/05 04:33:43;;;;;;;1.97;0.97;;;;;;;;;;5036442;28;20455;-68
2023/10/05 04:36:10;;;;;;;1.70;0.67;;;;;;;;;;5038955;28;20428;-68
2023/10/05 04:38:38;;;;;;;1.70;0.90;;;;;;;;;;5048133;28;20439;-68
2023/10/05 04:41:06;;;;;;;2.00;1.23;;;;;;;;;;5031449;28;20459;-69
2023/10/05 04:43:34;;;;;;;2.93;1.43;;;;;;;;;;5020146;28;20945;-68
2023/10/05 04:46:09;;;;;;;1.67;0.83;;;;;;;;;;5035172;28;20493;-69
2023/10/05 04:48:39;;;;;;;2.07;1.00;;;;;;;;;;5032588;28;20438;-68
2023/10/05 04:51:06;;;;;;;2.43;1.10;;;;;;;;;;5019505;28;20581;-69
2023/10/05 04:53:38;;;;;;;2.10;0.90;;;;;;;;;;5023466;28;20442;-69
2023/10/05 04:56:22;;;;;;;3.10;1.47;;;;;;;;;;5031777;28;20460;-68
2023/10/05 04:59:18;;;;;;;1.90;0.77;;;;;;;;;;5024041;28;20458;-69
2023/10/05 05:02:00;;;;;;;4.63;1.17;;;;;;;;;;5022029;28;20459;-69
2023/10/05 05:04:41;;;;;;;1.80;0.83;;;;;;;;;;5028168;28;20467;-68
2023/10/05 05:07:09;;;;;;;2.27;1.03;;;;;;;;;;5027170;28;20454;-69
2023/10/05 05:09:41;;;;;;;3.20;1.53;;;;;;;;;;5023892;28;20479;-68
2023/10/05 05:12:16;;;;;;;3.10;1.33;;;;;;;;;;5016057;28;20480;-68
2023/10/05 05:14:44;;;;;;;2.00;0.90;;;;;;;;;;5031753;28;20489;-69
2023/10/05 05:17:13;;;;;;;2.00;1.03;;;;;;;;;;5020899;28;20460;-68
2023/10/05 05:19:41;;;;;;;3.27;0.90;;;;;;;;;;5023880;28;20517;-70
2023/10/05 05:22:08;;;;;;;1.87;0.90;;;;;;;;;;5019981;28;20472;-68
2023/10/05 05:24:36;;;;;;;3.37;1.47;;;;;;;;;;5018620;28;20456;-69
2023/10/05 05:27:04;;;;;;;3.57;1.53;;;;;;;;;;5025856;28;20456;-68
2023/10/05 05:29:33;;;;;;;2.07;0.80;;;15.70;99.90;;;;;;5013041;28;20571;-66
2023/10/05 05:32:07;;;;;;;3.70;1.53;;;10.40;99.90;;;;;;5012704;28;20721;-67
2023/10/05 05:34:34;;;;;;;2.07;0.90;;;10.10;99.90;;;;;;5025893;28;20506;-67
2023/10/05 05:37:01;;;;;;;2.00;1.30;;;10.00;99.90;;;;;;5020358;28;20458;-67
2023/10/05 05:39:32;;;;;;;2.10;1.13;;;9.90;99.90;;;;;;5021757;28;20456;-67
2023/10/05 05:42:05;;;;;;;3.70;1.67;;;10.00;99.90;;;;;;5026950;28;20444;-67
2023/10/05 05:44:36;;;;;;;2.00;0.90;;;10.10;99.90;;;;;;5023375;28;20475;-67
2023/10/05 05:47:09;;;;;;;3.90;1.60;;;10.00;99.90;;;;;;5026016;28;20444;-67
2023/10/05 05:49:37;;;;;;;2.20;1.17;;;10.10;99.90;;;;;;5015579;28;21068;-67
2023/10/05 05:52:08;;;;;;;2.30;1.03;;;10.30;99.90;;;;;;5016949;28;20555;-68
2023/10/05 05:54:36;;;;;;;2.50;1.03;;;10.30;99.90;;;;;;5020609;28;20471;-67
2023/10/05 05:57:06;;;;;;;3.40;1.40;;;10.30;99.90;;;;;;5023892;28;20868;-68
2023/10/05 05:59:35;;;;;;;3.27;1.43;;;10.30;99.90;;;;;;5019772;28;20471;-68
2023/10/05 06:02:07;;;;;;;2.43;1.30;;;10.40;99.90;;;;;;5025791;28;20455;-68
2023/10/05 06:04:33;;;;;;;1.80;0.70;;;10.20;99.90;;;;;;5019955;28;20499;-68
2023/10/05 06:07:01;;;;;;;3.80;1.27;;;10.10;99.90;;;;;;5029288;28;20459;-68
2023/10/05 06:09:33;;;;;;;3.50;1.23;;;10.10;99.90;;;;;;5024053;28;20444;-68
2023/10/05 06:12:01;;;;;;;2.20;1.00;;;10.00;99.90;;;;;;5017429;28;20455;-69
2023/10/05 06:14:28;;;;;;;2.57;0.83;;;;;;;;;;5013795;28;20467;-68
2023/10/05 06:16:56;;;;;;;5.10;1.50;;;;;;;;;;5026332;28;20455;-67
2023/10/05 06:19:27;;;;;;;3.07;1.33;;;;;;;;;;5016721;28;20456;-68
2023/10/05 06:21:54;;;;;;;8.03;0.90;;;;;;;;;;5026468;28;20463;-68
2023/10/05 06:24:23;;;;;;;3.30;1.37;;;;;;;;;;5025450;28;20650;-68
2023/10/05 06:26:51;;;;;;;2.53;1.23;;;;;;;;;;5025452;28;20491;-69
2023/10/05 06:29:18;;;;;;;2.80;1.20;;;;;;;;;;5022041;28;20446;-68
2023/10/05 06:31:45;;;;;;;2.17;1.13;;;;;;;;;;5020948;28;20502;-67
2023/10/05 06:34:13;;;;;;;2.00;1.00;;;;;;;;;;5026595;28;20825;-68
2023/10/05 06:36:42;;;;;;;2.43;1.40;;;;;;;;;;5018244;28;20459;-67
2023/10/05 06:39:09;;;;;;;2.03;1.30;;;;;;;;;;5028070;28;20450;-68
2023/10/05 06:41:37;;;;;;;2.60;1.23;;;;;;;;;;5019665;28;20538;-68
2023/10/05 06:44:07;;;;;;;1.70;0.83;;;;;;;;;;5024680;28;20813;-68
2023/10/05 06:46:34;;;;;;;4.63;2.17;;;;;;;;;;5017298;28;21805;-67
2023/10/05 06:49:05;;;;;;;2.77;1.50;;;;;;;;;;5021246;28;20437;-68
2023/10/05 06:51:39;;;;;;;2.30;1.23;;;;;;;;;;5022353;28;20538;-69
2023/10/05 06:54:08;;;;;;;2.10;1.20;;;;;;;;;;5018485;28;20474;-67
2023/10/05 06:56:35;;;;;;;4.00;1.37;;;;;;;;;;5012584;28;20491;-69
2023/10/05 06:59:04;;;;;;;2.70;1.07;;;;;;;;;;5017336;28;20470;-68
2023/10/05 07:01:34;;;;;;;4.63;1.30;;;;;;;;;;5018691;28;20511;-69
2023/10/05 07:04:02;;;;;;;2.60;1.03;;;;;;;;;;5027824;28;20534;-68
2023/10/05 07:06:32;;;;;;;2.67;1.60;;;;;;;;;;5032679;28;20475;-68
2023/10/05 07:09:01;;;;;;;3.67;1.60;;;;;;;;;;5021410;28;20455;-67
2023/10/05 07:11:28;;;;;;;2.03;0.80;;;;;;;;;;5017937;28;20571;-68
2023/10/05 07:13:55;;;;;;;2.30;1.50;;;;;;;;;;5018142;28;20482;-68
2023/10/05 07:16:22;;;;;;;2.63;1.77;;;;;;;;;;5020349;28;20469;-68
2023/10/05 07:18:49;;;;;;;2.30;1.30;;;;;;;;;;5026951;28;20439;-69
2023/10/05 07:21:16;;;;;;;5.43;1.43;;;;;;;;;;5023819;28;20483;-69
2023/10/05 07:23:46;;;;;;;2.10;1.47;;;;;;;;;;5020666;28;20463;-69
2023/10/05 07:26:15;;;;;;;5.13;1.67;;;;;;;;;;5027488;28;20463;-69
2023/10/05 07:28:43;;;;;;;3.07;1.53;;;;;;;;;;5028801;28;20448;-69
2023/10/05 07:31:10;;;;;;;3.30;2.20;;;;;;;;;;5015095;28;20485;-68
2023/10/05 07:33:38;;;;;;;2.20;1.20;;;;;;;;;;5026334;28;20888;-68
2023/10/05 07:36:05;;;;;;;2.20;1.93;;;;;;;;;;5021110;28;20463;-68
2023/10/05 07:38:32;;;;;;;4.33;1.43;;;;;;;;;;5025528;28;20448;-67
2023/10/05 07:41:03;;;;;;;3.30;1.90;;;;;;;;;;5030401;28;20460;-68
2023/10/05 07:43:32;;;;;;;3.30;1.47;;;;;;;;;;5023964;28;20470;-67
2023/10/05 07:46:00;;;;;;;2.80;1.43;;;;;;;;;;5023116;28;20454;-70
2023/10/05 07:48:27;;;;;;;2.20;1.10;;;;;;;;;;5030646;28;20870;-68
2023/10/05 07:50:55;;;;;;;4.70;1.10;;;;;;;;;;5020240;28;20475;-69
2023/10/05 07:53:22;;;;;;;3.43;1.40;;;;;;;;;;5024257;28;20551;-68
2023/10/05 07:55:49;;;;;;;3.23;1.80;;;;;;;;;;5030338;28;20490;-69
2023/10/05 07:58:16;;;;;;;3.80;1.30;;;;;;;;;;5013846;28;20502;-69
2023/10/05 08:00:45;;;;;;;2.87;1.37;;;;;;;;;;5026782;28;20454;-69
2023/10/05 08:03:15;;;;;;;3.37;1.60;;;;;;;;;;5031336;28;20443;-69
2023/10/05 08:05:42;;;;;;;2.40;1.00;;;;;;;;;;5021708;28;20597;-69
2023/10/05 08:08:10;;;;;;;2.27;1.40;;;;;;;;;;5018492;28;20565;-69
2023/10/05 08:10:38;;;;;;;3.40;1.87;;;;;;;;;;5023302;28;20479;-69
2023/10/05 08:13:06;;;;;;;4.90;2.20;;;;;;;;;;5035556;28;20443;-69
2023/10/05 08:15:36;;;;;;;4.43;1.30;;;;;;;;;;5030988;28;20603;-69
2023/10/05 08:18:05;;;;;;;2.90;1.70;;;;;;;;;;5033888;28;20466;-69
2023/10/05 08:20:32;;;;;;;3.10;1.33;;;;;;;;;;5022231;28;20450;-70
2023/10/05 08:22:59;;;;;;;2.10;1.10;;;;;;;;;;5024808;28;20444;-69
2023/10/05 08:25:26;;;;;;;1.80;1.00;;;;;;;;;;5030889;28;20472;-69
2023/10/05 08:27:55;;;;;;;3.70;1.40;;;;;;;;;;5017460;28;20463;-69
2023/10/05 08:30:24;;;;;;;3.07;1.60;;;;;;;;;;5029248;28;20483;-69
2023/10/05 08:32:53;;;;;;;2.03;1.03;;;;;;;;;;5026380;28;20489;-69
2023/10/05 08:35:21;;;;;;;4.20;2.03;;;;;;;;;;5034351;28;20506;-69
2023/10/05 08:37:49;;;;;;;2.40;1.20;;;;;;;;;;5032949;28;20458;-69
2023/10/05 08:43:08;;;;;;;3.53;1.43;;;;;;;;;;5026068;28;20850;-69
2023/10/05 08:45:37;;;;;;;4.73;1.23;;;;;;;;;;5025428;28;21005;-69
2023/10/05 08:48:08;;;;;;;3.00;1.70;;;;;;;;;;5029714;28;20439;-66
2023/10/05 08:50:37;;;;;;;3.30;1.57;;;;;;;;;;5029525;28;20570;-69
2023/10/05 08:53:07;;;;;;;6.70;1.33;;;;;;;;;;5035923;28;20559;-69
2023/10/05 08:55:34;;;;;;;2.93;1.37;;;;;;;;;;5019684;28;20927;-68
2023/10/05 08:58:03;;;;;;;4.00;1.93;;;;;;;;;;5024948;28;20455;-67
2023/10/05 09:00:39;;;;;;;5.13;1.87;;;;;;;;;;5025526;28;20490;-69
2023/10/05 09:03:28;;;;;;;3.40;1.37;;;;;;;;;;5030210;28;20461;-68
2023/10/05 09:06:20;;;;;;;3.30;1.90;;;;;;;;;;5033976;28;20546;-68
2023/10/05 09:08:51;;;;;;;3.80;2.40;;;;;;;;;;5034231;28;20439;-68
2023/10/05 09:11:20;;;;;;;6.87;2.47;;;;;;;;;;5023416;28;20953;-69
2023/10/05 09:13:47;;;;;;;5.77;1.97;;;;;;;;;;5021333;28;20836;-67
2023/10/05 09:16:22;;;;;;;5.30;1.47;;;;;;;;;;5027399;28;20503;-68
2023/10/05 09:18:49;;;;;;;4.47;1.63;;;;;;;;;;5020471;28;20855;-68
2023/10/05 09:21:19;;;;;;;3.40;1.37;;;;;;;;;;5028808;28;21001;-69
2023/10/05 09:23:47;;;;;;;3.80;1.83;;;;;;;;;;5026247;28;20942;-68
2023/10/05 09:26:33;;;;;;;4.27;1.93;;;;;;;;;;5031180;28;20474;-68
2023/10/05 09:29:20;;;;;;;6.40;2.60;;;;;;;;;;5029658;28;20888;-68
2023/10/05 09:31:50;;;;;;;3.47;1.47;;;;;;;;;;5020798;28;20476;-67
2023/10/05 09:34:19;;;;;;;3.50;1.90;;;;;;;;;;5027368;28;20490;-67
2023/10/05 09:36:48;;;;;;;5.33;1.77;;;;;;;;;;5033725;28;20451;-67
2023/10/05 09:39:16;;;;;;;4.57;1.70;;;;;;;;;;5019521;28;20436;-68
2023/10/05 09:41:44;;;;;;;4.10;1.50;;;;;;;;;;5025814;28;20493;-67
2023/10/05 09:44:15;;;;;;;5.83;2.00;;;;;;;;;;5021168;28;20855;-68
2023/10/05 09:46:43;;;;;;;3.87;1.57;;;;;;;;;;5029135;28;20451;-69
2023/10/05 09:49:14;;;;;;;3.60;1.83;;;;;;;;;;5021630;28;20441;-68
2023/10/05 09:51:43;;;;;;;2.73;1.40;;;;;;;;;;5023962;28;20480;-67
2023/10/05 09:54:12;;;;;;;4.00;2.30;;;;;;;;;;5024695;28;20509;-67
2023/10/05 09:56:41;;;;;;;5.23;2.07;;;;;;;;;;5025453;28;20440;-67
2023/10/05 09:59:15;;;;;;;3.43;1.93;;;;;;;;;;5022821;28;20439;-68
2023/10/05 10:01:44;;;;;;;4.83;1.30;;;;;;;;;;5021436;28;20444;-68
2023/10/05 10:04:14;;;;;;;4.47;2.37;;;;;;;;;;5021983;28;20479;-67
2023/10/05 10:06:42;;;;;;;5.03;1.97;;;;;;;;;;5027474;28;20453;-68
2023/10/05 10:09:09;;;;;;;3.77;1.53;;;;;;;;;;5016880;28;20962;-68
2023/10/05 10:11:38;;;;;;;3.47;1.70;;;;;;;;;;5022722;28;20537;-68
2023/10/05 10:14:09;;;;;;;3.37;2.03;;;;;;;;;;5017657;28;20467;-68
2023/10/05 10:16:39;;;;;;;3.77;1.50;;;;;;;;;;5025113;28;20450;-68
2023/10/05 10:19:08;;;;;;;3.77;2.53;;;;;;;;;;5026738;28;20459;-68
2023/10/05 10:21:41;;;;;;;5.70;2.13;;;;;;;;;;5023291;28;20915;-67
2023/10/05 10:24:11;;;;;;;2.80;1.10;;;;;;;;;;5025958;28;20472;-67
2023/10/05 10:26:44;;;;;;;4.07;1.80;;;;;;;;;;5024458;28;20443;-68
2023/10/05 10:29:12;;;;;;;5.20;1.73;;;;;;;;;;5020559;28;20459;-69
2023/10/05 10:31:48;;;;;;;4.43;1.70;;;;;;;;;;5020092;28;20482;-66
2023/10/05 10:34:20;;;;;;;2.90;2.10;;;;;;;;;;5031867;28;20545;-68
2023/10/05 10:36:51;;;;;;;5.50;1.63;;;;;;;;;;5028554;28;20495;-68
2023/10/05 10:39:27;;;;;;;4.13;2.30;;;;;;;;;;5026119;28;20490;-67
2023/10/05 10:42:00;;;;;;;2.60;1.63;;;;;;;;;;5016941;28;20475;-67
2023/10/05 10:44:28;;;;;;;4.90;2.00;;;;;;;;;;5013437;28;20869;-69
2023/10/05 10:47:08;;;;;;;5.53;2.20;;;;;;;;;;5030686;28;20458;-67
2023/10/05 10:49:39;;;;;;;3.83;1.93;;;;;;;;;;5023259;28;20493;-67
2023/10/05 10:52:09;;;;;;;4.20;2.07;;;;;;;;;;5032870;28;21012;-67
2023/10/05 10:54:37;;;;;;;7.13;2.20;;;;;;;;;;5029339;28;20483;-68
2023/10/05 10:57:20;;;;;;;4.77;2.00;;;;;;;;;;5084302;28;20540;-67
2023/10/05 10:59:46;;;;;;;4.53;1.47;;;;;;;;;;5065199;28;20456;-67
2023/10/05 11:02:19;;;;;;;5.13;1.80;;;;;;;;;;5065027;28;20449;-67
2023/10/05 11:04:47;;;;;;;6.20;2.30;;;;;;;;;;5067565;28;20481;-67
2023/10/05 11:07:15;;;;;;;4.13;1.70;;;;;;;;;;5068112;28;20971;-68
2023/10/05 11:09:48;;;;;;;4.33;2.00;;;;;;;;;;5068715;28;20508;-68
2023/10/05 11:12:21;;;;;;;4.40;1.80;;;;;;;;;;5064512;28;20430;-67
2023/10/05 11:14:51;;;;;;;11.07;1.83;;;;;;;;;;5058152;28;20902;-67
2023/10/05 11:17:35;;;;;;;3.57;1.70;;;;;;;;;;5060787;28;20512;-68
2023/10/05 11:20:13;;;;;;;4.73;1.50;;;;;;;;;;5063286;28;20468;-67
2023/10/05 11:22:43;;;;;;;4.10;1.60;;;;;;;;;;5060804;28;20491;-67
2023/10/05 11:25:23;;;;;;;3.93;1.60;;;;;;;;;;5064536;28;20837;-68
2023/10/05 11:27:55;;;;;;;3.23;1.20;;;;;;;;;;5063176;28;20461;-69
2023/10/05 11:30:24;;;;;;;2.80;1.23;;;;;;;;;;5067025;28;20430;-68
2023/10/05 11:32:56;;;;;;;3.63;1.30;;;;;;;;;;5067001;28;20872;-68
2023/10/05 11:35:29;;;;;;;3.50;1.40;;;;;;;;;;5067909;28;20847;-68
2023/10/05 11:38:03;;;;;;;6.53;1.60;;;;;;;;;;5068621;28;20929;-69
2023/10/05 11:40:34;;;;;;;4.40;1.53;;;;;;;;;;5064052;28;20470;-69
2023/10/05 11:43:06;;;;;;;4.17;1.30;;;;;;;;;;5067884;28;20454;-70
2023/10/05 11:45:35;;;;;;;5.00;1.83;;;;;;;;;;5065859;28;20474;-69
2023/10/05 11:48:12;;;;;;;2.70;1.13;;;;;;;;;;5063183;28;20462;-69
2023/10/05 11:50:51;;;;;;;3.70;1.70;;;;;;;;;;5067524;28;20443;-70
2023/10/05 11:53:20;;;;;;;6.00;1.63;;;;;;;;;;5068163;28;20541;-69
2023/10/05 11:55:49;;;;;;;2.60;1.50;;;;;;;;;;5067572;28;20477;-69
2023/10/05 11:58:18;;;;;;;5.07;2.00;;;;;;;;;;5059820;28;20474;-69
2023/10/05 12:00:45;;;;;;;3.47;1.40;;;;;;;;;;5064452;28;21023;-69
2023/10/05 12:03:12;;;;;;;3.73;1.37;;;;;;;;;;5060492;28;20480;-70
2023/10/05 12:05:40;;;;;;;5.20;1.87;;;;;;;;;;5067169;28;20457;-69
2023/10/05 12:08:12;;;;;;;6.50;2.00;;;;;;;;;;5056558;28;20442;-69
2023/10/05 12:10:39;;;;;;;4.13;1.70;;;;;;;;;;5054384;28;20450;-69
2023/10/05 12:13:07;;;;;;;5.17;1.83;;;;;;;;;;5054043;28;20448;-69
2023/10/05 12:15:36;;;;;;;3.43;1.90;;;;;;;;;;5053973;28;20493;-71
2023/10/05 12:18:12;;;;;;;3.90;1.40;;;;;;;;;;5054202;28;20468;-67
2023/10/05 12:20:41;;;;;;;4.43;1.40;;;;;;;;;;5051739;28;20457;-71
2023/10/05 12:23:10;;;;;;;4.33;1.83;;;;;;;;;;5053493;28;20446;-68
2023/10/05 12:25:37;;;;;;;4.73;1.60;;;;;;;;;;5053754;28;20988;-68
2023/10/05 12:28:05;;;;;;;5.00;1.80;;;;;;;;;;5054144;28;20445;-69
2023/10/05 12:30:32;;;;;;;4.73;1.80;;;;;;;;;;5053767;28;20516;-69
2023/10/05 12:33:03;;;;;;;4.40;1.40;;;;;;;;;;5053722;28;20533;-69
2023/10/05 12:35:30;;;;;;;5.47;2.20;;;;;;;;;;5052595;28;20467;-68
2023/10/05 12:37:58;;;;;;;3.73;1.80;;;;;;;;;;5048089;28;20452;-69
2023/10/05 12:40:33;;;;;;;4.10;1.90;;;;;;;;;;5053905;28;20500;-69
2023/10/05 12:43:01;;;;;;;4.17;1.50;;;;;;;;;;5054025;28;20512;-69
2023/10/05 12:45:28;;;;;;;3.77;1.70;;;;;;;;;;5053859;28;20465;-68
2023/10/05 12:47:56;;;;;;;6.63;2.10;;;;;;;;;;5052820;28;20854;-68
2023/10/05 12:50:26;;;;;;;5.13;1.97;;;;;;;;;;5054242;28;20490;-68
2023/10/05 12:52:53;;;;;;;10.00;2.20;;;;;;;;;;5059357;28;20443;-68
2023/10/05 12:55:22;;;;;;;3.83;1.80;;;;;;;;;;5051046;28;20497;-68
2023/10/05 12:57:50;;;;;;;6.53;1.60;;;;;;;;;;5053702;28;20874;-68
2023/10/05 13:00:22;;;;;;;5.87;1.70;;;;;;;;;;5051161;28;20441;-68
2023/10/05 13:02:53;;;;;;;4.60;1.70;;;;;;;;;;5048872;28;20944;-69
2023/10/05 13:05:21;;;;;;;3.33;1.27;;;;;;;;;;5053293;28;20837;-68
2023/10/05 13:07:50;;;;;;;3.80;1.90;;;;;;;;;;5046846;28;20487;-69
2023/10/05 13:10:27;;;;;;;4.23;1.30;;;;;;;;;;5051495;28;20530;-68
2023/10/05 13:13:00;;;;;;;4.80;1.43;;;;;;;;;;5053816;28;20473;-68
2023/10/05 13:15:32;;;;;;;4.37;1.70;;;;;;;;;;5040227;28;20493;-68
2023/10/05 13:18:15;;;;;;;3.07;1.43;;;;;;;;;;5050721;28;20881;-68
2023/10/05 13:20:42;;;;;;;3.50;1.53;;;;;;;;;;5038774;28;20937;-68
2023/10/05 13:23:11;;;;;;;2.13;1.10;;;;;;;;;;5049924;28;20481;-68
2023/10/05 13:25:39;;;;;;;8.33;2.03;;;;;;;;;;5053282;28;20468;-68
2023/10/05 13:28:11;;;;;;;4.60;1.70;;;;;;;;;;5053654;28;20462;-68
2023/10/05 13:30:41;;;;;;;2.90;1.10;;;;;;;;;;5052808;28;20442;-69
2023/10/05 13:33:13;;;;;;;5.90;1.37;;;;;;;;;;5053718;28;20937;-68
2023/10/05 13:35:41;;;;;;;6.20;2.10;;;;;;;;;;5050502;28;20471;-68
2023/10/05 13:38:08;;;;;;;4.77;1.93;;;;;;;;;;5052656;28;20529;-68
2023/10/05 13:40:37;;;;;;;3.67;1.57;;;;;;;;;;5053037;28;20505;-69
2023/10/05 13:43:05;;;;;;;4.00;1.50;;;;;;;;;;5053026;28;20538;-69
2023/10/05 13:45:34;;;;;;;5.23;2.20;;;;;;;;;;5052715;28;20505;-69
2023/10/05 13:48:04;;;;;;;6.70;1.50;;;;;;;;;;5052509;28;20512;-69
2023/10/05 13:50:31;;;;;;;6.83;1.70;;;;;;;;;;5052494;28;20438;-69
2023/10/05 13:52:58;;;;;;;3.13;1.43;;;;;;;;;;5048685;28;20465;-68
2023/10/05 13:55:25;;;;;;;3.93;1.63;;;;;;;;;;5052087;28;20474;-70
2023/10/05 13:57:58;;;;;;;5.57;1.70;;;;;;;;;;5051575;28;20839;-71
2023/10/05 14:00:25;;;;;;;3.73;1.50;;;;;;;;;;5052317;28;20435;-70
2023/10/05 14:02:53;;;;;;;2.70;1.57;;;;;;;;;;5052599;28;20468;-70
2023/10/05 14:05:22;;;;;;;6.27;1.50;;;;;;;;;;5051910;28;20474;-70
2023/10/05 14:07:51;;;;;;;3.17;1.50;;;;;;;;;;5052775;28;20454;-70
2023/10/05 14:10:20;;;;;;;3.50;1.60;;;;;;;;;;5049805;28;20493;-70
2023/10/05 14:12:47;;;;;;;2.23;0.90;;;;;;;;;;5052020;28;20463;-70
2023/10/05 14:15:19;;;;;;;5.00;1.63;;;;;;;;;;5049183;28;20478;-70
2023/10/05 14:17:49;;;;;;;3.03;1.60;;;;;;;;;;5044934;28;20488;-70
2023/10/05 14:20:16;;;;;;;5.03;1.47;;;;;;;;;;5047888;28;20442;-70
2023/10/05 14:22:44;;;;;;;3.80;1.40;;;;;;;;;;5045993;28;20450;-70
2023/10/05 14:25:17;;;;;;;4.10;1.77;;;;;;;;;;5045912;28;20509;-69
2023/10/05 14:27:44;;;;;;;3.00;1.20;;;;;;;;;;5039282;28;20465;-70
2023/10/05 14:30:16;;;;;;;4.13;1.83;;;;;;;;;;5041487;28;20839;-69
2023/10/05 14:32:45;;;;;;;5.53;2.03;;;;;;;;;;5047221;28;20533;-70
2023/10/05 14:35:15;;;;;;;6.30;1.90;;;;;;;;;;5045521;28;20828;-69
2023/10/05 14:37:43;;;;;;;3.90;1.77;;;;;;;;;;5050969;28;20486;-70
2023/10/05 14:40:15;;;;;;;4.20;1.80;;;;;;;;;;5048100;28;20505;-69
2023/10/05 14:42:44;;;;;;;7.83;2.03;;;;;;;;;;5038901;28;20497;-70
2023/10/05 14:45:14;;;;;;;5.30;2.30;;;;;;;;;;5050628;28;20898;-71
2023/10/05 14:47:41;;;;;;;4.03;1.60;;;;;;;;;;5050935;28;20444;-69
2023/10/05 14:50:11;;;;;;;5.60;1.60;;;;;;;;;;5051326;28;20438;-70
2023/10/05 14:52:39;;;;;;;3.93;1.13;;;;;;;;;;5051731;28;20442;-70
2023/10/05 14:55:08;;;;;;;6.33;2.40;;;;;;;;;;5046427;28;20482;-70
2023/10/05 14:57:35;;;;;;;3.50;1.60;;;;;;;;;;5047577;28;20470;-69